sensor_id;sensor_type;location;lat;lon;timestamp;P1;durP1;ratioP1;P2;durP2;ratioP2
33912;SDS011;20200;52.084;5.224;2022-12-07T00:00:26;18.0;;;9.31;;
33912;SDS011;20200;52.084;5.224;2022-12-07T00:02:03;13.2;;;7.4;;
33912;SDS011;20200;52.084;5.224;2022-12-07T00:03:39;14.0;;;6.6;;
33912;SDS011;20200;52.084;5.224;2022-12-07T00:06:53;15.8;;;6.5;;
33912;SDS011;20200;52.084;5.224;2022-12-07T00:08:29;12.2;;;6.4;;
33912;SDS011;20200;52.084;5.224;2022-12-07T00:10:07;17.91;;;7.1;;
33912;SDS011;20200;52.084;5.224;2022-12-07T00:13:25;12.9;;;6.1;;
33912;SDS011;20200;52.084;5.224;2022-12-07T00:15:01;12.4;;;6.2;;
33912;SDS011;20200;52.084;5.224;2022-12-07T00:16:38;15.4;;;6.9;;
33912;SDS011;20200;52.084;5.224;2022-12-07T00:18:15;17.0;;;6.6;;
33912;SDS011;20200;52.084;5.224;2022-12-07T00:21:28;13.6;;;5.7;;
33912;SDS011;20200;52.084;5.224;2022-12-07T00:23:07;14.5;;;5.8;;
33912;SDS011;20200;52.084;5.224;2022-12-07T00:24:43;15.0;;;6.0;;
33912;SDS011;20200;52.084;5.224;2022-12-07T00:27:57;15.1;;;6.2;;
33912;SDS011;20200;52.084;5.224;2022-12-07T00:29:34;11.9;;;5.9;;
33912;SDS011;20200;52.084;5.224;2022-12-07T00:31:10;14.9;;;6.1;;
33912;SDS011;20200;52.084;5.224;2022-12-07T00:32:48;13.9;;;5.9;;
33912;SDS011;20200;52.084;5.224;2022-12-07T00:36:01;14.5;;;5.4;;
33912;SDS011;20200;52.084;5.224;2022-12-07T00:37:38;13.0;;;5.7;;
33912;SDS011;20200;52.084;5.224;2022-12-07T00:39:15;13.7;;;5.2;;
33912;SDS011;20200;52.084;5.224;2022-12-07T00:42:32;14.5;;;6.4;;
33912;SDS011;20200;52.084;5.224;2022-12-07T00:44:08;15.3;;;6.0;;
33912;SDS011;20200;52.084;5.224;2022-12-07T00:45:44;15.0;;;6.2;;
33912;SDS011;20200;52.084;5.224;2022-12-07T00:47:20;14.7;;;6.6;;
33912;SDS011;20200;52.084;5.224;2022-12-07T00:50:33;14.2;;;6.1;;
33912;SDS011;20200;52.084;5.224;2022-12-07T00:52:09;15.1;;;6.2;;
33912;SDS011;20200;52.084;5.224;2022-12-07T00:53:45;13.2;;;5.8;;
33912;SDS011;20200;52.084;5.224;2022-12-07T00:56:58;16.0;;;6.4;;
33912;SDS011;20200;52.084;5.224;2022-12-07T00:58:35;12.3;;;6.1;;
33912;SDS011;20200;52.084;5.224;2022-12-07T01:00:11;11.8;;;5.7;;
33912;SDS011;20200;52.084;5.224;2022-12-07T01:03:24;11.8;;;4.8;;
33912;SDS011;20200;52.084;5.224;2022-12-07T01:05:00;12.0;;;5.8;;
33912;SDS011;20200;52.084;5.224;2022-12-07T01:06:37;17.11;;;5.2;;
33912;SDS011;20200;52.084;5.224;2022-12-07T01:09:50;12.4;;;5.5;;
33912;SDS011;20200;52.084;5.224;2022-12-07T01:11:27;12.9;;;5.0;;
33912;SDS011;20200;52.084;5.224;2022-12-07T01:13:05;15.6;;;4.7;;
33912;SDS011;20200;52.084;5.224;2022-12-07T01:14:41;12.0;;;4.5;;
33912;SDS011;20200;52.084;5.224;2022-12-07T01:17:56;12.2;;;4.61;;
33912;SDS011;20200;52.084;5.224;2022-12-07T01:19:32;14.8;;;5.3;;
33912;SDS011;20200;52.084;5.224;2022-12-07T01:21:09;16.9;;;5.2;;
33912;SDS011;20200;52.084;5.224;2022-12-07T01:24:23;11.5;;;4.8;;
33912;SDS011;20200;52.084;5.224;2022-12-07T01:26:01;9.31;;;4.61;;
33912;SDS011;20200;52.084;5.224;2022-12-07T01:27:39;11.2;;;3.9;;
33912;SDS011;20200;52.084;5.224;2022-12-07T01:29:15;14.2;;;4.91;;
33912;SDS011;20200;52.084;5.224;2022-12-07T01:32:32;13.8;;;4.5;;
33912;SDS011;20200;52.084;5.224;2022-12-07T01:34:09;15.0;;;4.5;;
33912;SDS011;20200;52.084;5.224;2022-12-07T01:35:46;13.7;;;4.41;;
33912;SDS011;20200;52.084;5.224;2022-12-07T01:38:59;12.9;;;4.5;;
33912;SDS011;20200;52.084;5.224;2022-12-07T01:40:36;13.7;;;4.7;;
33912;SDS011;20200;52.084;5.224;2022-12-07T01:42:12;13.3;;;4.61;;
33912;SDS011;20200;52.084;5.224;2022-12-07T01:44:21;10.6;;;4.7;;
33912;SDS011;20200;52.084;5.224;2022-12-07T01:45:59;15.4;;;5.4;;
33912;SDS011;20200;52.084;5.224;2022-12-07T01:49:17;16.5;;;5.0;;
33912;SDS011;20200;52.084;5.224;2022-12-07T01:51:01;14.3;;;5.11;;
33912;SDS011;20200;52.084;5.224;2022-12-07T01:52:41;11.8;;;4.61;;
33912;SDS011;20200;52.084;5.224;2022-12-07T01:54:24;12.3;;;4.91;;
33912;SDS011;20200;52.084;5.224;2022-12-07T01:57:39;13.3;;;5.0;;
33912;SDS011;20200;52.084;5.224;2022-12-07T01:59:19;16.9;;;5.7;;
33912;SDS011;20200;52.084;5.224;2022-12-07T02:00:59;14.6;;;4.5;;
33912;SDS011;20200;52.084;5.224;2022-12-07T02:04:18;17.11;;;4.5;;
33912;SDS011;20200;52.084;5.224;2022-12-07T02:05:55;14.1;;;4.2;;
33912;SDS011;20200;52.084;5.224;2022-12-07T02:07:33;13.7;;;4.1;;
33912;SDS011;20200;52.084;5.224;2022-12-07T02:09:14;14.9;;;4.5;;
33912;SDS011;20200;52.084;5.224;2022-12-07T02:12:27;16.7;;;4.7;;
33912;SDS011;20200;52.084;5.224;2022-12-07T02:14:03;16.8;;;5.0;;
33912;SDS011;20200;52.084;5.224;2022-12-07T02:15:44;13.2;;;4.5;;
33912;SDS011;20200;52.084;5.224;2022-12-07T02:17:40;16.0;;;4.41;;
33912;SDS011;20200;52.084;5.224;2022-12-07T02:22:12;13.3;;;3.9;;
33912;SDS011;20200;52.084;5.224;2022-12-07T02:25:07;28.2;;;7.7;;
33912;SDS011;20200;52.084;5.224;2022-12-07T02:26:55;14.4;;;4.61;;
33912;SDS011;20200;52.084;5.224;2022-12-07T02:29:30;14.4;;;4.0;;
33912;SDS011;20200;52.084;5.224;2022-12-07T02:31:12;13.4;;;4.41;;
33912;SDS011;20200;52.084;5.224;2022-12-07T02:32:56;11.9;;;4.5;;
33912;SDS011;20200;52.084;5.224;2022-12-07T02:34:40;13.8;;;4.1;;
33912;SDS011;20200;52.084;5.224;2022-12-07T02:36:25;15.3;;;4.3;;
33912;SDS011;20200;52.084;5.224;2022-12-07T02:39:53;15.3;;;4.5;;
33912;SDS011;20200;52.084;5.224;2022-12-07T02:41:35;14.8;;;4.3;;
33912;SDS011;20200;52.084;5.224;2022-12-07T02:43:17;13.0;;;4.5;;
33912;SDS011;20200;52.084;5.224;2022-12-07T02:45:01;13.9;;;4.1;;
33912;SDS011;20200;52.084;5.224;2022-12-07T02:46:40;13.7;;;4.1;;
33912;SDS011;20200;52.084;5.224;2022-12-07T02:49:57;13.0;;;3.8;;
33912;SDS011;20200;52.084;5.224;2022-12-07T02:51:33;15.0;;;4.0;;
33912;SDS011;20200;52.084;5.224;2022-12-07T02:53:46;18.7;;;4.91;;
33912;SDS011;20200;52.084;5.224;2022-12-07T02:55:25;17.91;;;4.41;;
33912;SDS011;20200;52.084;5.224;2022-12-07T02:57:08;13.3;;;4.2;;
33912;SDS011;20200;52.084;5.224;2022-12-07T03:00:54;13.2;;;3.6;;
33912;SDS011;20200;52.084;5.224;2022-12-07T03:02:48;13.8;;;4.3;;
33912;SDS011;20200;52.084;5.224;2022-12-07T03:04:32;14.6;;;3.9;;
33912;SDS011;20200;52.084;5.224;2022-12-07T03:06:20;17.2;;;4.61;;
33912;SDS011;20200;52.084;5.224;2022-12-07T03:08:05;13.1;;;4.2;;
33912;SDS011;20200;52.084;5.224;2022-12-07T03:09:50;11.7;;;3.8;;
33912;SDS011;20200;52.084;5.224;2022-12-07T03:13:22;15.5;;;4.0;;
33912;SDS011;20200;52.084;5.224;2022-12-07T03:15:05;14.3;;;3.9;;
33912;SDS011;20200;52.084;5.224;2022-12-07T03:16:49;15.1;;;4.5;;
33912;SDS011;20200;52.084;5.224;2022-12-07T03:18:33;15.0;;;4.1;;
33912;SDS011;20200;52.084;5.224;2022-12-07T03:20:15;13.3;;;5.11;;
33912;SDS011;20200;52.084;5.224;2022-12-07T03:23:39;14.7;;;4.5;;
33912;SDS011;20200;52.084;5.224;2022-12-07T03:25:20;14.3;;;4.41;;
33912;SDS011;20200;52.084;5.224;2022-12-07T03:26:59;14.3;;;3.8;;
33912;SDS011;20200;52.084;5.224;2022-12-07T03:28:49;12.7;;;3.8;;
33912;SDS011;20200;52.084;5.224;2022-12-07T03:30:31;11.9;;;3.8;;
33912;SDS011;20200;52.084;5.224;2022-12-07T03:34:02;11.0;;;3.5;;
33912;SDS011;20200;52.084;5.224;2022-12-07T03:35:51;15.7;;;4.0;;
33912;SDS011;20200;52.084;5.224;2022-12-07T03:37:36;13.0;;;3.8;;
33912;SDS011;20200;52.084;5.224;2022-12-07T03:39:20;10.5;;;3.3;;
33912;SDS011;20200;52.084;5.224;2022-12-07T03:41:03;10.7;;;3.5;;
33912;SDS011;20200;52.084;5.224;2022-12-07T03:44:22;9.81;;;3.2;;
33912;SDS011;20200;52.084;5.224;2022-12-07T03:46:00;11.1;;;3.2;;
33912;SDS011;20200;52.084;5.224;2022-12-07T03:47:53;14.5;;;3.5;;
33912;SDS011;20200;52.084;5.224;2022-12-07T03:49:40;9.1;;;3.4;;
33912;SDS011;20200;52.084;5.224;2022-12-07T03:53:05;12.8;;;3.8;;
33912;SDS011;20200;52.084;5.224;2022-12-07T03:54:48;12.7;;;3.3;;
33912;SDS011;20200;52.084;5.224;2022-12-07T03:56:32;10.7;;;3.4;;
33912;SDS011;20200;52.084;5.224;2022-12-07T03:58:12;13.0;;;3.5;;
33912;SDS011;20200;52.084;5.224;2022-12-07T03:59:53;11.5;;;3.3;;
33912;SDS011;20200;52.084;5.224;2022-12-07T04:03:07;8.0;;;3.0;;
33912;SDS011;20200;52.084;5.224;2022-12-07T04:04:45;9.1;;;3.2;;
33912;SDS011;20200;52.084;5.224;2022-12-07T04:06:21;10.8;;;3.8;;
33912;SDS011;20200;52.084;5.224;2022-12-07T04:09:33;12.1;;;3.2;;
33912;SDS011;20200;52.084;5.224;2022-12-07T04:11:09;9.5;;;3.1;;
33912;SDS011;20200;52.084;5.224;2022-12-07T04:12:46;11.7;;;3.2;;
33912;SDS011;20200;52.084;5.224;2022-12-07T04:15:59;12.2;;;3.0;;
33912;SDS011;20200;52.084;5.224;2022-12-07T04:17:35;10.21;;;3.6;;
33912;SDS011;20200;52.084;5.224;2022-12-07T04:19:12;10.6;;;3.1;;
33912;SDS011;20200;52.084;5.224;2022-12-07T04:20:49;12.6;;;3.2;;
33912;SDS011;20200;52.084;5.224;2022-12-07T04:24:02;12.6;;;3.3;;
33912;SDS011;20200;52.084;5.224;2022-12-07T04:25:39;14.7;;;3.5;;
33912;SDS011;20200;52.084;5.224;2022-12-07T04:27:16;15.0;;;3.0;;
33912;SDS011;20200;52.084;5.224;2022-12-07T04:30:28;13.0;;;3.3;;
33912;SDS011;20200;52.084;5.224;2022-12-07T04:32:05;12.6;;;3.0;;
33912;SDS011;20200;52.084;5.224;2022-12-07T04:33:41;14.6;;;3.2;;
33912;SDS011;20200;52.084;5.224;2022-12-07T04:36:53;14.2;;;3.6;;
33912;SDS011;20200;52.084;5.224;2022-12-07T04:38:29;14.5;;;3.2;;
33912;SDS011;20200;52.084;5.224;2022-12-07T04:40:06;12.9;;;3.4;;
33912;SDS011;20200;52.084;5.224;2022-12-07T04:41:44;19.8;;;4.1;;
33912;SDS011;20200;52.084;5.224;2022-12-07T04:44:57;14.3;;;3.7;;
33912;SDS011;20200;52.084;5.224;2022-12-07T04:46:33;13.8;;;3.7;;
33912;SDS011;20200;52.084;5.224;2022-12-07T04:48:09;12.6;;;3.3;;
33912;SDS011;20200;52.084;5.224;2022-12-07T04:51:22;16.8;;;3.9;;
33912;SDS011;20200;52.084;5.224;2022-12-07T04:53:01;14.1;;;2.9;;
33912;SDS011;20200;52.084;5.224;2022-12-07T04:54:37;17.0;;;3.6;;
33912;SDS011;20200;52.084;5.224;2022-12-07T04:57:50;17.3;;;3.7;;
33912;SDS011;20200;52.084;5.224;2022-12-07T04:59:26;15.8;;;3.7;;
33912;SDS011;20200;52.084;5.224;2022-12-07T05:01:03;13.2;;;3.3;;
33912;SDS011;20200;52.084;5.224;2022-12-07T05:02:39;13.2;;;3.2;;
33912;SDS011;20200;52.084;5.224;2022-12-07T05:05:52;16.0;;;3.4;;
33912;SDS011;20200;52.084;5.224;2022-12-07T05:07:28;10.0;;;2.7;;
33912;SDS011;20200;52.084;5.224;2022-12-07T05:09:04;13.2;;;3.3;;
33912;SDS011;20200;52.084;5.224;2022-12-07T05:12:18;11.8;;;2.8;;
33912;SDS011;20200;52.084;5.224;2022-12-07T05:13:54;13.1;;;3.6;;
33912;SDS011;20200;52.084;5.224;2022-12-07T05:15:31;17.41;;;4.1;;
33912;SDS011;20200;52.084;5.224;2022-12-07T05:18:43;12.3;;;3.4;;
33912;SDS011;20200;52.084;5.224;2022-12-07T05:20:20;12.2;;;3.4;;
33912;SDS011;20200;52.084;5.224;2022-12-07T05:21:56;14.4;;;4.0;;
33912;SDS011;20200;52.084;5.224;2022-12-07T05:23:32;16.11;;;4.41;;
33912;SDS011;20200;52.084;5.224;2022-12-07T05:26:45;16.9;;;4.3;;
33912;SDS011;20200;52.084;5.224;2022-12-07T05:28:22;10.5;;;4.1;;
33912;SDS011;20200;52.084;5.224;2022-12-07T05:29:58;10.5;;;4.1;;
33912;SDS011;20200;52.084;5.224;2022-12-07T05:33:10;14.2;;;3.9;;
33912;SDS011;20200;52.084;5.224;2022-12-07T05:34:46;14.2;;;3.5;;
33912;SDS011;20200;52.084;5.224;2022-12-07T05:36:23;13.1;;;3.7;;
33912;SDS011;20200;52.084;5.224;2022-12-07T05:39:34;18.0;;;4.5;;
33912;SDS011;20200;52.084;5.224;2022-12-07T05:42:11;14.5;;;4.5;;
33912;SDS011;20200;52.084;5.224;2022-12-07T05:43:47;20.3;;;4.8;;
33912;SDS011;20200;52.084;5.224;2022-12-07T05:45:24;19.41;;;5.0;;
33912;SDS011;20200;52.084;5.224;2022-12-07T05:47:00;16.9;;;5.0;;
33912;SDS011;20200;52.084;5.224;2022-12-07T05:48:36;16.61;;;5.11;;
33912;SDS011;20200;52.084;5.224;2022-12-07T05:51:48;14.7;;;4.41;;
33912;SDS011;20200;52.084;5.224;2022-12-07T05:53:24;18.8;;;5.0;;
33912;SDS011;20200;52.084;5.224;2022-12-07T05:55:01;18.91;;;5.11;;
33912;SDS011;20200;52.084;5.224;2022-12-07T05:59:30;19.2;;;6.2;;
33912;SDS011;20200;52.084;5.224;2022-12-07T06:01:06;19.3;;;4.8;;
33912;SDS011;20200;52.084;5.224;2022-12-07T06:02:42;17.7;;;4.8;;
33912;SDS011;20200;52.084;5.224;2022-12-07T06:04:19;17.11;;;4.61;;
33912;SDS011;20200;52.084;5.224;2022-12-07T06:05:56;20.8;;;5.11;;
33912;SDS011;20200;52.084;5.224;2022-12-07T06:07:32;17.91;;;4.41;;
33912;SDS011;20200;52.084;5.224;2022-12-07T06:10:46;16.9;;;4.3;;
33912;SDS011;20200;52.084;5.224;2022-12-07T06:12:39;15.7;;;3.9;;
33912;SDS011;20200;52.084;5.224;2022-12-07T06:14:16;11.9;;;3.6;;
33912;SDS011;20200;52.084;5.224;2022-12-07T06:15:52;16.5;;;3.8;;
33912;SDS011;20200;52.084;5.224;2022-12-07T06:19:04;14.8;;;3.6;;
33912;SDS011;20200;52.084;5.224;2022-12-07T06:20:40;12.2;;;3.3;;
33912;SDS011;20200;52.084;5.224;2022-12-07T06:22:17;13.9;;;4.41;;
33912;SDS011;20200;52.084;5.224;2022-12-07T06:25:30;15.8;;;3.9;;
33912;SDS011;20200;52.084;5.224;2022-12-07T06:27:06;13.3;;;3.3;;
33912;SDS011;20200;52.084;5.224;2022-12-07T06:28:43;16.61;;;3.9;;
33912;SDS011;20200;52.084;5.224;2022-12-07T06:31:55;17.5;;;4.1;;
33912;SDS011;20200;52.084;5.224;2022-12-07T06:33:32;13.4;;;3.4;;
33912;SDS011;20200;52.084;5.224;2022-12-07T06:35:09;14.7;;;3.4;;
33912;SDS011;20200;52.084;5.224;2022-12-07T06:36:45;13.2;;;4.1;;
33912;SDS011;20200;52.084;5.224;2022-12-07T06:39:59;11.8;;;3.9;;
33912;SDS011;20200;52.084;5.224;2022-12-07T06:41:36;13.2;;;3.7;;
33912;SDS011;20200;52.084;5.224;2022-12-07T06:43:13;10.8;;;3.4;;
33912;SDS011;20200;52.084;5.224;2022-12-07T06:46:26;16.61;;;3.8;;
33912;SDS011;20200;52.084;5.224;2022-12-07T06:48:02;14.8;;;3.6;;
33912;SDS011;20200;52.084;5.224;2022-12-07T06:49:38;14.8;;;3.6;;
33912;SDS011;20200;52.084;5.224;2022-12-07T06:52:52;11.6;;;3.5;;
33912;SDS011;20200;52.084;5.224;2022-12-07T06:54:30;14.7;;;3.4;;
33912;SDS011;20200;52.084;5.224;2022-12-07T06:56:06;14.7;;;3.4;;
33912;SDS011;20200;52.084;5.224;2022-12-07T06:57:44;12.1;;;2.7;;
33912;SDS011;20200;52.084;5.224;2022-12-07T07:00:57;13.6;;;3.3;;
33912;SDS011;20200;52.084;5.224;2022-12-07T07:02:33;13.6;;;3.3;;
33912;SDS011;20200;52.084;5.224;2022-12-07T07:04:09;12.5;;;3.1;;
33912;SDS011;20200;52.084;5.224;2022-12-07T07:07:21;14.0;;;3.8;;
33912;SDS011;20200;52.084;5.224;2022-12-07T07:08:57;13.4;;;4.41;;
33912;SDS011;20200;52.084;5.224;2022-12-07T07:10:34;16.7;;;5.0;;
33912;SDS011;20200;52.084;5.224;2022-12-07T07:13:47;12.6;;;4.2;;
33912;SDS011;20200;52.084;5.224;2022-12-07T07:15:23;14.6;;;3.8;;
33912;SDS011;20200;52.084;5.224;2022-12-07T07:16:59;15.9;;;3.6;;
33912;SDS011;20200;52.084;5.224;2022-12-07T07:18:36;19.0;;;3.9;;
33912;SDS011;20200;52.084;5.224;2022-12-07T07:21:49;17.11;;;4.1;;
33912;SDS011;20200;52.084;5.224;2022-12-07T07:23:25;16.11;;;3.6;;
33912;SDS011;20200;52.084;5.224;2022-12-07T07:25:01;15.5;;;3.8;;
33912;SDS011;20200;52.084;5.224;2022-12-07T07:28:15;16.4;;;3.9;;
33912;SDS011;20200;52.084;5.224;2022-12-07T07:29:52;11.6;;;3.0;;
33912;SDS011;20200;52.084;5.224;2022-12-07T07:34:41;16.61;;;4.0;;
33912;SDS011;20200;52.084;5.224;2022-12-07T07:36:18;17.11;;;3.6;;
33912;SDS011;20200;52.084;5.224;2022-12-07T07:37:54;15.2;;;3.8;;
33912;SDS011;20200;52.084;5.224;2022-12-07T07:39:31;17.41;;;4.1;;
33912;SDS011;20200;52.084;5.224;2022-12-07T07:42:43;13.0;;;3.3;;
33912;SDS011;20200;52.084;5.224;2022-12-07T07:44:19;17.7;;;3.8;;
33912;SDS011;20200;52.084;5.224;2022-12-07T07:45:55;16.9;;;3.5;;
33912;SDS011;20200;52.084;5.224;2022-12-07T07:49:08;14.5;;;3.8;;
33912;SDS011;20200;52.084;5.224;2022-12-07T07:50:44;11.0;;;3.5;;
33912;SDS011;20200;52.084;5.224;2022-12-07T07:52:20;16.0;;;3.7;;
33912;SDS011;20200;52.084;5.224;2022-12-07T07:55:33;16.61;;;3.5;;
33912;SDS011;20200;52.084;5.224;2022-12-07T07:57:10;13.5;;;3.8;;
33912;SDS011;20200;52.084;5.224;2022-12-07T07:58:46;17.8;;;4.2;;
33912;SDS011;20200;52.084;5.224;2022-12-07T08:01:58;15.5;;;3.9;;
33912;SDS011;20200;52.084;5.224;2022-12-07T08:03:34;14.6;;;4.0;;
33912;SDS011;20200;52.084;5.224;2022-12-07T08:05:12;16.11;;;4.2;;
33912;SDS011;20200;52.084;5.224;2022-12-07T08:06:48;18.5;;;4.5;;
33912;SDS011;20200;52.084;5.224;2022-12-07T08:10:01;13.3;;;4.5;;
33912;SDS011;20200;52.084;5.224;2022-12-07T08:11:38;20.2;;;5.11;;
33912;SDS011;20200;52.084;5.224;2022-12-07T08:13:14;21.1;;;4.5;;
33912;SDS011;20200;52.084;5.224;2022-12-07T08:16:28;17.91;;;3.9;;
33912;SDS011;20200;52.084;5.224;2022-12-07T08:18:05;15.6;;;4.0;;
33912;SDS011;20200;52.084;5.224;2022-12-07T08:19:42;17.5;;;4.0;;
33912;SDS011;20200;52.084;5.224;2022-12-07T08:21:18;17.91;;;4.1;;
33912;SDS011;20200;52.084;5.224;2022-12-07T08:24:32;15.4;;;3.9;;
33912;SDS011;20200;52.084;5.224;2022-12-07T08:26:09;15.0;;;4.2;;
33912;SDS011;20200;52.084;5.224;2022-12-07T08:27:48;15.8;;;5.11;;
33912;SDS011;20200;52.084;5.224;2022-12-07T08:31:01;21.2;;;6.0;;
33912;SDS011;20200;52.084;5.224;2022-12-07T08:32:39;14.4;;;4.8;;
33912;SDS011;20200;52.084;5.224;2022-12-07T08:34:15;16.7;;;4.91;;
33912;SDS011;20200;52.084;5.224;2022-12-07T08:37:28;14.0;;;5.0;;
33912;SDS011;20200;52.084;5.224;2022-12-07T08:39:04;15.0;;;4.61;;
33912;SDS011;20200;52.084;5.224;2022-12-07T08:40:40;10.5;;;3.5;;
33912;SDS011;20200;52.084;5.224;2022-12-07T08:42:16;14.8;;;3.5;;
33912;SDS011;20200;52.084;5.224;2022-12-07T08:45:32;16.8;;;4.2;;
33912;SDS011;20200;52.084;5.224;2022-12-07T08:47:08;16.7;;;3.8;;
33912;SDS011;20200;52.084;5.224;2022-12-07T08:48:48;18.2;;;3.9;;
33912;SDS011;20200;52.084;5.224;2022-12-07T08:52:06;18.0;;;3.5;;
33912;SDS011;20200;52.084;5.224;2022-12-07T08:53:43;11.0;;;2.9;;
33912;SDS011;20200;52.084;5.224;2022-12-07T08:55:20;14.3;;;3.4;;
33912;SDS011;20200;52.084;5.224;2022-12-07T08:56:57;17.11;;;3.9;;
33912;SDS011;20200;52.084;5.224;2022-12-07T09:00:12;16.0;;;3.6;;
33912;SDS011;20200;52.084;5.224;2022-12-07T09:01:49;12.1;;;3.2;;
33912;SDS011;20200;52.084;5.224;2022-12-07T09:03:26;13.8;;;3.5;;
33912;SDS011;20200;52.084;5.224;2022-12-07T09:06:40;15.7;;;3.9;;
33912;SDS011;20200;52.084;5.224;2022-12-07T09:08:17;13.1;;;3.4;;
33912;SDS011;20200;52.084;5.224;2022-12-07T09:09:54;13.4;;;3.7;;
33912;SDS011;20200;52.084;5.224;2022-12-07T09:11:32;16.7;;;3.8;;
33912;SDS011;20200;52.084;5.224;2022-12-07T09:14:44;15.9;;;3.4;;
33912;SDS011;20200;52.084;5.224;2022-12-07T09:16:20;14.0;;;4.0;;
33912;SDS011;20200;52.084;5.224;2022-12-07T09:17:56;17.41;;;3.8;;
33912;SDS011;20200;52.084;5.224;2022-12-07T09:21:09;16.8;;;3.9;;
33912;SDS011;20200;52.084;5.224;2022-12-07T09:22:45;15.4;;;3.8;;
33912;SDS011;20200;52.084;5.224;2022-12-07T09:24:22;13.6;;;3.4;;
33912;SDS011;20200;52.084;5.224;2022-12-07T09:27:35;14.2;;;3.6;;
33912;SDS011;20200;52.084;5.224;2022-12-07T09:29:12;14.8;;;3.8;;
33912;SDS011;20200;52.084;5.224;2022-12-07T09:30:48;14.4;;;3.8;;
33912;SDS011;20200;52.084;5.224;2022-12-07T09:34:01;16.11;;;3.8;;
33912;SDS011;20200;52.084;5.224;2022-12-07T09:35:37;12.7;;;3.5;;
33912;SDS011;20200;52.084;5.224;2022-12-07T09:37:13;12.9;;;3.4;;
33912;SDS011;20200;52.084;5.224;2022-12-07T09:38:50;14.2;;;3.8;;
33912;SDS011;20200;52.084;5.224;2022-12-07T09:42:04;13.5;;;3.2;;
33912;SDS011;20200;52.084;5.224;2022-12-07T09:43:42;16.9;;;4.0;;
33912;SDS011;20200;52.084;5.224;2022-12-07T09:45:21;14.4;;;3.4;;
33912;SDS011;20200;52.084;5.224;2022-12-07T09:48:37;12.1;;;3.3;;
33912;SDS011;20200;52.084;5.224;2022-12-07T09:50:15;12.7;;;3.6;;
33912;SDS011;20200;52.084;5.224;2022-12-07T09:52:02;13.9;;;3.5;;
33912;SDS011;20200;52.084;5.224;2022-12-07T09:53:54;13.2;;;3.5;;
33912;SDS011;20200;52.084;5.224;2022-12-07T09:55:33;13.2;;;3.6;;
33912;SDS011;20200;52.084;5.224;2022-12-07T09:59:06;16.0;;;3.1;;
33912;SDS011;20200;52.084;5.224;2022-12-07T10:00:50;16.3;;;3.4;;
33912;SDS011;20200;52.084;5.224;2022-12-07T10:02:34;12.7;;;3.0;;
33912;SDS011;20200;52.084;5.224;2022-12-07T10:04:14;14.0;;;2.8;;
33912;SDS011;20200;52.084;5.224;2022-12-07T10:07:30;13.5;;;3.0;;
33912;SDS011;20200;52.084;5.224;2022-12-07T10:09:09;9.31;;;2.7;;
33912;SDS011;20200;52.084;5.224;2022-12-07T10:10:50;13.4;;;3.0;;
33912;SDS011;20200;52.084;5.224;2022-12-07T10:12:28;11.1;;;3.2;;
33912;SDS011;20200;52.084;5.224;2022-12-07T10:15:49;14.9;;;3.4;;
33912;SDS011;20200;52.084;5.224;2022-12-07T10:17:30;8.9;;;2.7;;
33912;SDS011;20200;52.084;5.224;2022-12-07T10:19:19;9.4;;;2.9;;
33912;SDS011;20200;52.084;5.224;2022-12-07T10:21:00;11.6;;;3.4;;
33912;SDS011;20200;52.084;5.224;2022-12-07T10:22:50;14.7;;;3.3;;
33912;SDS011;20200;52.084;5.224;2022-12-07T10:26:40;14.8;;;3.4;;
33912;SDS011;20200;52.084;5.224;2022-12-07T10:28:33;12.2;;;3.3;;
33912;SDS011;20200;52.084;5.224;2022-12-07T10:30:12;11.0;;;3.3;;
33912;SDS011;20200;52.084;5.224;2022-12-07T10:32:00;13.1;;;3.3;;
33912;SDS011;20200;52.084;5.224;2022-12-07T10:33:41;11.8;;;3.2;;
33912;SDS011;20200;52.084;5.224;2022-12-07T10:35:26;11.5;;;2.9;;
33912;SDS011;20200;52.084;5.224;2022-12-07T10:38:58;14.5;;;3.1;;
33912;SDS011;20200;52.084;5.224;2022-12-07T10:40:38;14.4;;;3.4;;
33912;SDS011;20200;52.084;5.224;2022-12-07T10:42:16;12.0;;;3.2;;
33912;SDS011;20200;52.084;5.224;2022-12-07T10:43:55;16.5;;;3.6;;
33912;SDS011;20200;52.084;5.224;2022-12-07T10:47:22;14.5;;;3.1;;
33912;SDS011;20200;52.084;5.224;2022-12-07T10:49:10;10.4;;;3.0;;
33912;SDS011;20200;52.084;5.224;2022-12-07T10:52:26;12.2;;;2.6;;
33912;SDS011;20200;52.084;5.224;2022-12-07T10:54:20;14.0;;;2.6;;
33912;SDS011;20200;52.084;5.224;2022-12-07T10:56:17;12.4;;;2.5;;
33912;SDS011;20200;52.084;5.224;2022-12-07T10:58:24;10.3;;;2.5;;
33912;SDS011;20200;52.084;5.224;2022-12-07T11:01:57;11.1;;;2.31;;
33912;SDS011;20200;52.084;5.224;2022-12-07T11:03:53;6.8;;;2.0;;
33912;SDS011;20200;52.084;5.224;2022-12-07T11:05:53;11.7;;;2.31;;
33912;SDS011;20200;52.084;5.224;2022-12-07T11:07:43;9.71;;;2.4;;
33912;SDS011;20200;52.084;5.224;2022-12-07T11:09:36;12.2;;;2.6;;
33912;SDS011;20200;52.084;5.224;2022-12-07T11:11:44;9.5;;;2.31;;
33912;SDS011;20200;52.084;5.224;2022-12-07T11:13:32;9.5;;;2.31;;
33912;SDS011;20200;52.084;5.224;2022-12-07T11:15:22;12.9;;;2.6;;
33912;SDS011;20200;52.084;5.224;2022-12-07T11:17:05;11.0;;;2.6;;
33912;SDS011;20200;52.084;5.224;2022-12-07T11:20:42;13.0;;;2.4;;
33912;SDS011;20200;52.084;5.224;2022-12-07T11:22:26;13.5;;;2.5;;
33912;SDS011;20200;52.084;5.224;2022-12-07T11:24:14;9.1;;;2.4;;
33912;SDS011;20200;52.084;5.224;2022-12-07T11:25:54;12.0;;;2.5;;
33912;SDS011;20200;52.084;5.224;2022-12-07T11:27:43;11.8;;;2.21;;
33912;SDS011;20200;52.084;5.224;2022-12-07T11:31:31;11.8;;;2.21;;
33912;SDS011;20200;52.084;5.224;2022-12-07T11:33:29;8.4;;;2.31;;
33912;SDS011;20200;52.084;5.224;2022-12-07T11:35:16;8.5;;;2.7;;
33912;SDS011;20200;52.084;5.224;2022-12-07T11:37:08;10.6;;;2.31;;
33912;SDS011;20200;52.084;5.224;2022-12-07T11:38:49;10.0;;;2.1;;
33912;SDS011;20200;52.084;5.224;2022-12-07T11:40:30;10.8;;;2.21;;
33912;SDS011;20200;52.084;5.224;2022-12-07T11:42:12;9.5;;;2.4;;
33912;SDS011;20200;52.084;5.224;2022-12-07T11:45:41;13.9;;;2.31;;
33912;SDS011;20200;52.084;5.224;2022-12-07T11:47:23;9.81;;;2.4;;
33912;SDS011;20200;52.084;5.224;2022-12-07T11:49:08;10.21;;;2.31;;
33912;SDS011;20200;52.084;5.224;2022-12-07T11:50:51;11.1;;;3.1;;
33912;SDS011;20200;52.084;5.224;2022-12-07T11:54:24;10.8;;;2.9;;
33912;SDS011;20200;52.084;5.224;2022-12-07T11:56:08;9.4;;;2.5;;
33912;SDS011;20200;52.084;5.224;2022-12-07T11:57:49;12.9;;;3.9;;
33912;SDS011;20200;52.084;5.224;2022-12-07T11:59:36;13.4;;;3.6;;
33912;SDS011;20200;52.084;5.224;2022-12-07T12:01:39;13.8;;;3.5;;
33912;SDS011;20200;52.084;5.224;2022-12-07T12:03:24;14.4;;;3.0;;
33912;SDS011;20200;52.084;5.224;2022-12-07T12:06:53;12.0;;;2.7;;
33912;SDS011;20200;52.084;5.224;2022-12-07T12:08:29;10.3;;;2.5;;
33912;SDS011;20200;52.084;5.224;2022-12-07T12:10:15;13.4;;;2.7;;
33912;SDS011;20200;52.084;5.224;2022-12-07T12:12:01;12.6;;;2.8;;
33912;SDS011;20200;52.084;5.224;2022-12-07T12:14:01;13.5;;;3.4;;
33912;SDS011;20200;52.084;5.224;2022-12-07T12:16:01;12.8;;;2.9;;
33912;SDS011;20200;52.084;5.224;2022-12-07T12:17:56;12.7;;;3.1;;
33912;SDS011;20200;52.084;5.224;2022-12-07T12:21:01;12.7;;;3.2;;
33912;SDS011;20200;52.084;5.224;2022-12-07T12:22:44;13.3;;;3.1;;
33912;SDS011;20200;52.084;5.224;2022-12-07T12:24:26;14.4;;;2.9;;
33912;SDS011;20200;52.084;5.224;2022-12-07T12:26:07;13.6;;;2.7;;
33912;SDS011;20200;52.084;5.224;2022-12-07T12:29:33;14.1;;;3.2;;
33912;SDS011;20200;52.084;5.224;2022-12-07T12:31:12;13.4;;;3.1;;
33912;SDS011;20200;52.084;5.224;2022-12-07T12:32:51;8.81;;;2.4;;
33912;SDS011;20200;52.084;5.224;2022-12-07T12:34:29;13.3;;;2.8;;
33912;SDS011;20200;52.084;5.224;2022-12-07T12:38:31;14.3;;;3.2;;
33912;SDS011;20200;52.084;5.224;2022-12-07T12:40:42;15.0;;;2.7;;
33912;SDS011;20200;52.084;5.224;2022-12-07T12:42:19;12.6;;;2.9;;
33912;SDS011;20200;52.084;5.224;2022-12-07T12:43:55;14.4;;;3.0;;
33912;SDS011;20200;52.084;5.224;2022-12-07T12:45:32;11.3;;;3.1;;
33912;SDS011;20200;52.084;5.224;2022-12-07T12:47:38;11.4;;;6.2;;
33912;SDS011;20200;52.084;5.224;2022-12-07T12:50:22;11.7;;;4.5;;
33912;SDS011;20200;52.084;5.224;2022-12-07T12:53:21;12.2;;;3.2;;